ZŁOTY PÓŁMARATON - 21 KM

Organizator/ Organizer:
Stowarzyszenie TKKF Kompas
Data/ Date:
2017-07-20
Miejsce/ Place:
Lądek Zdrój
Dystans/ Distance:
21 km
Zgłoszonych/ Registered:
418
Wystartowało/ Started:
367
Nie ukończyło/ Not finished:
6
Ukończyło/ Finished:
361
Na trasie/ On track:
0

Klasyfikacja/ Classiffication: Wszyscy

Wyniki nieoficjalne !!!
Pełne wyniki/ Full Results : PDF | CSV
Lista nagrodzonych/ List of winners: Open i wiekowe
Wyniki uproszczone/ Simple results : PDF | PDF2 | CSV
 
Klasyfikacje w punktach pomiarowych/ Classification for time points: 10km | Meta

Msc/ RnkZawodnik/ NameNumer/ BibKlub/ TeamMiejscowość/ CityKraj/ CountryKategoria/ CategoryMkat/ CatRnk10kmCzas
netto
21km
Czas
brutto
21km
Różn/ GapTempo
min/km
Tempo
km/h
       
1PRZEDWOJEWSKI Bartłomiej 2366GŁUCHOŁAZYSenior I M - 20 100:47:1301:24:36.4001:24:38.40 4:0114.9
2NÁPRAVNÍK Jan 2382RTYNĚ V PODKRKONOŠÍSenior II M - 30 100:55:2501:40:52.1501:40:55.85+00:16:174:4812.5
3WOLAŃSKI Jan 2338STAL FOX BIMARKOOŁAWASenior II M - 30 201:01:2601:44:23.5501:44:31.05+00:19:524:5812.1
4WILK Maciej 2189RAMBO 3BYTOMSenior II M - 30 300:59:2701:44:24.8001:44:42.70+00:20:044:5812.1
5KITA Michał 2179PĘDZĄCY W MIEJSCUWROCŁAWMasters M - 40 100:58:0301:44:47.1001:44:50.20+00:20:114:5912
6GRACZYK Adrian 2200BIEGI.WLKPCZARNKÓWSenior I M - 20 201:00:5201:45:34.0001:45:36.75+00:20:585:0111.9
7PAJĄK Tomasz 2304VEGE RUNNERSWARSZAWASenior II M - 30 401:01:0801:47:47.4501:47:57.40+00:23:195:0811.7
8MYSZCZYSZYN Łukasz 2093ANTRACYTKUDOWA ZDRÓJSenior II M - 30 501:01:0001:48:36.5001:48:39.10+00:24:005:1011.6
9KANTOR Martyna 2402SALCO GARMIN TEAMSenior I K - 20101:01:2401:49:01.5501:49:04.15+00:24:255:1111.6
10KOWAL Amadeusz 2377NAPRZÓD MŁOCINYLUBACZÓWSenior II M - 30 601:02:0301:49:34.0501:49:38.55+00:25:005:1311.5
11MICHALIK Adam 2365KRAKÓWMasters M - 40 201:02:4301:50:25.7501:50:29.00+00:25:505:1511.4
12PRZYBYLSKI Łukasz 2218KS IDMARMOSINASenior II M - 30 701:03:5301:52:47.5501:52:50.90+00:28:125:2211.2
13DURMAJ Bartek 2014WROCŁAWSenior II M - 30 801:05:0001:53:31.3001:53:36.10+00:28:575:2411.1
14IGNACZAK Marcin 2296IFB BROKERŻYCHLINMasters M - 40 301:05:0101:54:09.8501:54:11.95+00:29:335:2611
15STACHOWIAK Marcin 2222BIEGI.WLKPPUSZCZYKOWOSenior I M - 20 301:05:1401:54:39.3501:54:41.35+00:30:025:2711
16KSIĄŻKIEWICZ Bartłomiej 2081ROCKY BALBOA RUNNING CLUBBYTOMSenior II M - 30 901:03:5401:54:52.7001:55:09.70+00:30:315:2811
17PIRÓG Arkadiusz 2386PISFAKSenior II M - 30 1001:06:1001:55:11.9501:55:14.25+00:30:355:2910.9
18SPYCHALSKI Adam 2148RUDA ŚLĄSKAMasters M - 40 401:06:0001:55:24.3501:55:28.30+00:30:495:2910.9
19PAWŁOWSKI Marek 2305KLUB BIEGACZA KOMPANIA PIWOWARSKAPOZNAŃWeteran I M - 50 101:05:0401:55:28.8501:55:32.45+00:30:545:2910.9
20UGOREK Jarosław 2149KOPEĆ TEAMMILICZMasters M - 40 501:05:2901:56:40.0001:56:45.50+00:32:075:3310.8
21RĄCKI Dariusz 2181RONAL POLSKA RUNWAŁBRZYCHMasters M - 40 601:07:1701:57:24.4501:57:34.00+00:32:555:3510.7
22PIENIĄŻEK Patryk 2309KŁOBUCZYNSenior I M - 20 401:06:1401:57:58.5001:58:03.10+00:33:245:3710.7
23BRZESZKIEWICZ Michał 2411BIEGIEM PO PIWOSenior II M - 30 1101:07:4701:58:01.7001:58:10.30+00:33:315:3710.7
24URBANEK Zbyszek 2275PSZCZYNASenior II M - 30 1201:08:0801:58:23.6501:58:26.10+00:33:475:3810.6
25KAŹMIERCZAK Marta 2416DREAM RUNSenior II K - 30101:10:5202:00:02.1502:00:12.15+00:35:335:4210.5
26KROWICKA Agnieszka 2232OLIMPIJCZYK SZCZEKOCINYKRAKÓWSenior II K - 30201:07:4202:00:07.5502:00:13.30+00:35:345:4310.5
27DOMAŃSKI Patryk 2216GRUPA BIEGOWA RUNNERSCLUB.PL POZNAŃPOZNAŃSenior I M - 20 501:08:2002:01:48.8002:01:52.65+00:37:145:4810.3
28STĘPIEŃ Marta 2414Senior II K - 30301:10:0702:01:53.0002:02:03.70+00:37:255:4810.3
29CITKO Maciej 2208BIEG OPOLSKIOPOLESenior II M - 30 1301:10:1002:02:33.0502:02:45.50+00:38:075:5010.3
30MĘŻYŃSKI Szymon 2417Senior I M - 20 601:07:2902:02:17.2502:02:47.40+00:38:095:4910.3
31MAJCHRZAK Marcin 2367DELOITTE ADVENTURE TEAMSWARZĘDZSenior II M - 30 1401:07:1202:03:09.1502:03:17.25+00:38:385:5110.2
32ZIĘTERSKI Robert 2351KŁODZKOMasters M - 40 701:09:1502:04:20.0502:04:23.60+00:39:455:5510.1
33KWIATKOWSKI Przemysław 2054PISARZOWICESenior I M - 20 701:10:1802:05:04.1002:05:08.70+00:40:305:5710.1
34BIAŁY Adam 2394Masters M - 40 801:10:5302:06:46.1502:07:02.05+00:42:236:029.9
35PAWLAK Bartosz 2370ZAŁOGA GORSKAOSTRÓW WIELKOPOLSKISenior II M - 30 1501:10:0502:08:24.9002:08:29.85+00:43:516:069.8
36WALEŃSKA Ewa 2271GT RATWROCŁAWMasters K - 40101:13:3002:08:18.8002:08:30.05+00:43:516:069.8
37JANKOWSKI Janusz 2358NYSASenior II M - 30 1601:12:4502:08:03.0502:08:36.30+00:43:576:059.8
38DROŹDZIK Magdalena 2244WKB META LUBLINIECNYSASenior II K - 30401:13:3102:09:14.0502:09:18.95+00:44:406:099.7
39MOLENDA Maciej 2127RONAL POLSKA RUNWAŁBRZYCHSenior II M - 30 1701:15:2102:09:11.1002:09:30.25+00:44:516:099.8
40FIGAS Sebastian 2036LTTWROCLAWMasters M - 40 901:13:1402:10:06.6502:10:15.50+00:45:376:119.7
41KOWALCZYK Adam 2344STS BIEGATONMIKOŁÓWMasters M - 40 1001:16:1802:10:11.1502:10:20.50+00:45:426:119.7
42DEMKOWSKI Marcin 2313WROCŁAWSenior II M - 30 1801:15:1902:11:10.0502:11:36.50+00:46:586:149.6
43CHODOROWSKI Krzysztof 2135PRZEBIEGA.PLWROCŁAWSenior II M - 30 1901:13:0302:11:35.6502:11:50.80+00:47:126:159.6
44IWAN Anna 2311PODSIADŁO TEAMDASZEWICESenior I K - 20201:16:0102:11:12.0502:11:54.20+00:47:156:149.6
45ANTOSIAK Tomasz 2132TRIATHLON MIETKÓW TEAMZŁOTORYJASenior II M - 30 2001:16:3302:11:43.3502:11:54.35+00:47:156:169.6
46KYCIA Piotr 2188RAWICZMasters M - 40 1101:16:1702:12:28.4502:12:38.40+00:48:006:189.5
47OLESZAK Piotr 2280STREFA CHILLOUT'U / I LOVE ZIEMEKŚRODA WIELKOPOLSKASenior II M - 30 2101:16:0802:12:40.1002:12:58.20+00:48:196:199.5
48PAWLAK Gabriel 2321ERGOCONCEPTRADWANICWSenior II M - 30 2201:17:3302:13:08.8502:13:17.30+00:48:386:209.5
49KOSMALA Szymon 2150DĄBRÓWKASenior II M - 30 2301:15:2802:13:17.8002:13:51.45+00:49:136:209.5
50JAMRÓZ Wojciech 2295KW GLIWICEGLIWICEMasters M - 40 1201:14:0002:13:47.1502:13:51.60+00:49:136:229.4
51HEMMERLING Roman 2168POZNAŃSenior I M - 20 801:14:4702:13:46.5502:13:53.80+00:49:156:229.4
52KOCHMAN Karol 2175WPISZCOKOLWIEKPOZNAŃSenior I M - 20 901:14:4602:13:46.8002:13:54.15+00:49:156:229.4
53KUBACKA Sebastian 2243WROCŁAWSenior II M - 30 2401:15:5802:14:15.9502:14:20.10+00:49:416:239.4
54ZAWOJAK Aleksander 2059RONAL POLSKA RUNWAŁBRZYCHSenior I M - 20 1001:14:2202:14:16.3502:14:36.90+00:49:586:239.4
55TARASZKA Damian 2363BRACTWO BIEGACZY ZIELONA GÓRAZIELONA GÓRAMasters M - 40 1301:13:4602:15:02.2002:15:04.65+00:50:266:259.3
56BIEŃKOWSKI Kamil 2018BE BETTERRADWANICESenior II M - 30 2501:16:0602:14:26.0002:15:19.10+00:50:406:249.4
57KUŹMA Przemysław 21601960WIELICZKAWeteran I M - 50 201:18:5802:15:13.8502:15:22.05+00:50:436:269.3
58STEMPNIAK Daniel 2210KS MARATON OSTRÓW WLKP.OSTRÓW WIELKOPOLSKISenior II M - 30 2601:17:1902:15:52.1502:15:57.90+00:51:196:289.3
59HERMAN Michał 2105WARSZAWASenior I M - 20 1101:16:5402:16:02.4002:16:43.55+00:52:056:289.3
60BACA Łukasz 2252RAMBO 3BYTOMSenior II M - 30 2701:18:5602:16:25.4002:16:50.10+00:52:116:299.2
61UHEREK Michał 2260YODAWROCŁAWSenior II M - 30 2801:16:4402:16:39.9502:17:10.70+00:52:326:309.2
62JARMOLIŃSKI Piotr 2123MIERZYNMasters M - 40 1401:17:5902:17:16.7502:17:19.75+00:52:416:329.2
63KUBERA Piotr 2374LIPIEC RUNNING TEAMJÓZEFÓWMasters M - 40 1501:15:4302:17:30.1002:17:37.35+00:52:586:329.2
64SIEMIENIEC Marta 21831990WROCŁAWSenior I K - 20301:20:4902:17:01.5502:17:46.70+00:53:086:319.2
65OLESZOWSKI Marcin 2332LUXONWROCŁAWSenior II M - 30 2901:13:4202:17:24.3502:17:49.75+00:53:116:329.2
66BUDZIŃSKI Damian 2269NYSA BIEGANYSASenior II M - 30 3001:19:3202:17:33.6002:17:56.10+00:53:176:339.2
67GRZĘDZIELSKI Jacek 2387DYNAFITMasters M - 40 1601:21:1502:17:28.4002:18:00.10+00:53:216:329.2
68JANKOWIAK Krzysztof 2012MARCOKROSINKOSenior II M - 30 3101:18:1702:17:55.0002:18:04.20+00:53:256:349.1
69BADEWICZ Tomasz 2259GARAGE JIM BEAMKRAPKOWICESenior II M - 30 3201:15:2702:18:39.1502:18:54.95+00:54:166:369.1
70LEWANDOWSKI Piotr 2102JACZKOWICESenior II M - 30 3301:19:0602:18:32.5002:18:59.45+00:54:216:359.1
71ELMINOWSKI Wojciech 2306ELAKTYWNIELBLĄGWeteran I M - 50 301:17:4802:18:57.6002:19:02.50+00:54:246:379.1
72DOMAGAŁA Bartosz 2191LESZCZYŃSCY PATRIOCILESZNOSenior I M - 20 1201:19:0602:19:00.2502:19:06.25+00:54:276:379.1
73WRUK Remigiusz 2074BIEGOPOLSKIOPOLEMasters M - 40 1701:23:0202:19:03.4502:19:15.90+00:54:376:379.1
74UBYSZ Natalia 2112SERPENTINE RCLONDONSenior II K - 30501:22:1402:19:02.0502:19:38.90+00:55:006:379.1
75DRUMMOND Adam 2113SERPENTINE RCLONDONSenior II M - 30 3401:22:2202:19:07.0502:19:44.65+00:55:066:379.1
76OSTROWSKI Paweł 2347REHMEDICA.PLKRZESZOWICESenior II M - 30 3501:18:1902:19:37.9002:19:44.70+00:55:066:389
77CZARNIECKI Daniel 2128TIE-RUNPOLANICA-ZDRÓJSenior II M - 30 3601:16:4102:19:38.1502:19:53.80+00:55:156:389
78PLEŚNIAR Paweł 2061NIEFORMALNY KLUB TYGRYSKÓWBIECZWeteran I M - 50 401:20:2202:19:40.0002:19:53.80+00:55:156:399
79SAJEWICZ Grzegorz 2261WROCŁAWSenior II M - 30 3701:21:1802:19:37.5502:19:55.20+00:55:166:389
80SWIETEK-OZDOBA Sylwia 2037LTTWROCŁAWMasters K - 40201:19:5702:19:48.7002:19:57.55+00:55:196:399
81ORZECHOWSKI Daniel 2320I-SPORTWARSZAWASenior II M - 30 3801:22:0702:19:43.0502:20:06.45+00:55:286:399
82FUKS Michał 2315GRUPA FUXWROCŁAWSenior II M - 30 3901:21:4402:20:06.7502:20:35.55+00:55:576:409
83SUCH Arkadiusz 2389RZESZOWSKIE GAZELE I GEPARDYSenior II M - 30 4001:20:4402:20:00.4502:20:47.70+00:56:096:409
84WILGAT Adam 2053DZIKIE SKRZYDŁOZĄBKIMasters M - 40 1801:19:3902:20:30.8502:20:54.70+00:56:166:419
85PIENIĘŻNY Marek 2251KOŹMIN BIEGAKOŹMIN WIELKOPOLSKISenior II M - 30 4101:21:5902:20:56.4002:21:08.10+00:56:296:428.9
86NOLBRZYK Adrian 2080GREATGRATULA (SP)OSIECZNAMasters M - 40 1901:21:2002:20:56.0002:21:10.00+00:56:316:428.9
87OCHMAN Paweł 2361FUTURE PROCESSING RUNNING TEAMGLIWICESenior II M - 30 4201:20:4102:20:56.1502:21:12.20+00:56:336:428.9
88WOJCZUK Paweł 2106LĄDEK ZDRÓJSenior II M - 30 4301:15:4002:21:00.2002:21:24.30+00:56:456:428.9
89FĄFARA Marek 2284KS KOZIOŁEK KĘDZIERZYN-KOŹLEKEDZIERZYN-KOŹLESenior II M - 30 4401:23:2202:21:15.9002:21:26.15+00:56:476:438.9
90FERCHMIN Alicja 2292JESUS IS MY LEADERPOZNAŃSenior II K - 30601:19:4802:21:32.4002:21:42.95+00:57:046:448.9
91KUCZERA Paweł 2242ŚWIERKLANYSenior I M - 20 1301:21:1702:21:33.8002:22:02.80+00:57:246:448.9
92SŁOWIKOWSKA Klaudia 2047GDAŃSKSenior I K - 20401:21:3002:22:21.0002:22:27.95+00:57:496:468.9
93CZEBOTAR Barbara 2385Masters K - 40301:21:2402:22:33.6502:22:55.40+00:58:176:478.8
94BIERNACKA Kasia 2415SPELEO KLUB WARSZAWSKIMasters K - 40402:22:53.6502:22:59.80+00:58:216:488.8
95OZIMEK Michał 2378PRO RUN WROCŁAWSTRZEGOMSenior II M - 30 4501:22:1902:22:47.4002:23:00.70+00:58:226:478.8
96RACZKIEWICZ Jarek 2056BE3 CITYZEN POZNAŃPOZNAŃMasters M - 40 2001:21:3602:23:09.3502:23:22.65+00:58:446:498.8
97TUCHOŁKA Marta 2270POCO LOCO ADVENTURE TEAMKROBIASenior II K - 30701:23:1902:22:56.7502:23:23.00+00:58:446:488.8
98BURTNY Przemysław 2169BIZON BĄKOWICEOPOLEMasters M - 40 2101:22:3002:23:21.0502:23:31.30+00:58:526:498.8
99NAJDEREK Maciej 2201PIĘKNA HELENAPOZNAŃSenior II M - 30 4601:18:2102:23:14.5502:23:33.80+00:58:556:498.8
100CZERWONKA Zbigniew 23241983WROCŁAWSenior II M - 30 4701:24:3802:23:28.1002:23:34.90+00:58:566:498.8
101KACZMARCZYK Urszula 2158KARKONOSZ RUNNING TEAM / PRO RUN WROCŁAWWROCŁAWSenior II K - 30801:21:3602:23:15.7502:23:44.80+00:59:066:498.8
102HACZKIEWICZ Bartosz 2357MILKY2017STRONIE ŚLĄSKIESenior II M - 30 4801:17:5102:23:14.0502:23:52.25+00:59:136:498.8
103MIZERNY Maria 2072PIPOZNAŃSenior I K - 20501:23:5702:23:30.6502:24:06.90+00:59:286:508.8
104FALANDYSZ Piotr 2073KRAKÓWSenior I M - 20 1401:20:0702:23:31.6502:24:07.95+00:59:296:508.8
105KRUPA Bartłomiej 2110LĄDEK ZDRÓJSenior II M - 30 4901:22:3102:23:50.9002:24:23.55+00:59:456:518.8
106PIOTROWSKI Rafael 2418Senior II M - 30 5001:20:4702:24:47.0002:24:57.00+01:00:186:538.7
107LASZCZYŃSKI Michał 2240BORÓWSenior II M - 30 5101:23:3002:25:12.2502:25:42.20+01:01:036:548.7
108ABULEWICZ Wojciech 2327STP SYNERGIAWROCŁAWMasters M - 40 2201:22:2502:25:35.0002:25:46.55+01:01:086:558.7
109RYBARSKA Marta 2017DOLSKSenior I K - 20601:18:4202:25:51.6002:26:00.80+01:01:226:568.6
110GRĘDA Mariusz 2134OZIMEKSenior II M - 30 5201:20:3002:25:55.7502:26:01.45+01:01:236:568.6
111SZARLEJ Piotr 2319FUDU&CO. SPORT TEAMPIOTRKÓW TRYBUNALSKISenior II M - 30 5301:19:4202:25:53.0002:26:07.85+01:01:296:568.6
112MALENDOWICZ Przemysław 2151WROCŁAWSenior II M - 30 5401:21:4802:26:35.2502:27:05.45+01:02:276:588.6
113PUSTELNIK Karolina 2419AK6Senior II K - 30901:21:0702:26:40.3002:27:12.80+01:02:346:598.6
114GRABIŃSKA Gizela 2206DREAM RUN/ AZS UWWARSZAWA-WESOŁAMasters K - 40501:24:3602:27:03.1502:27:15.55+01:02:377:008.6
115GAWRON Bartłomiej 2085POLSKA NOWA WIEŚMasters M - 40 2301:21:4002:27:08.6502:27:20.75+01:02:427:008.6
116OSKWAREK Bogdan 2322DĘBOWA ŁĄKAMasters M - 40 2401:24:1902:27:11.8502:27:53.75+01:03:157:008.6
117MACHETA Patrycja 2068NOWY SĄCZSenior I K - 20701:23:4202:27:23.4502:27:56.70+01:03:187:018.5
118WYSTRYCHOWSKI Marcin 2220BFAGENCJA.PLWARSZAWASenior II M - 30 5501:16:2702:28:12.9502:28:18.80+01:03:407:038.5
119WOJTKOWIAK Renata 2156PIĄTKOWO NA BIEGOWOPOZNAŃMasters K - 40601:21:1602:28:16.2502:28:39.05+01:04:007:038.5
120WOJTKOWIAK Stefan 2157PIĄTKOWO NA BIEGOWOPOZNAŃMasters M - 40 2501:21:1502:28:15.8002:28:39.20+01:04:007:038.5
121HOFMAN Paweł 2381KALISZSenior II M - 30 5601:22:3202:28:30.9502:28:42.85+01:04:047:048.5
122BANDUROWSKA Agnieszka 2067KB SPOCENI NOWA SÓLNOWA SÓLMasters K - 40701:29:1102:28:36.4502:28:45.20+01:04:067:048.5
123ŻUREK Żaneta 2001POKERUNPOZNAŃSenior II K - 301001:26:2802:28:28.5002:28:45.80+01:04:077:048.5
124ŚRÓDKA Bartłomiej 2245TRZEBNICASenior II M - 30 5701:26:5502:28:45.8502:29:13.85+01:04:357:058.5
125SKRZYPIEC Katarzyna 2019OPOLESenior II K - 301101:21:4602:29:13.4002:29:19.65+01:04:417:068.4
126KWIATKOWSKI Paweł 2167CENEO RUNNING TEAMWROCŁAWSenior I M - 20 1501:27:0002:28:40.9502:29:20.25+01:04:417:048.5
127KUCHARCZYK Anna 2337WILLA SŁONECZKO TORPEDOSDUSZNIKI-ZDRÓJSenior II K - 301201:28:1602:28:49.8502:29:29.00+01:04:507:058.5
128CIESIELSKI Sebastian 2021KIBOLE W BIEGU / PAKIECIARZE TEAMPOZNAŃSenior II M - 30 5801:27:0902:29:53.4002:30:12.25+01:05:337:088.4
129GAWRON Piotr 2267KB GOCH BYTÒWBYTÒWMasters M - 40 2601:29:1302:30:01.0502:30:22.80+01:05:447:088.4
130RYCHLEWICZ Tomasz 2078WROCŁAWSenior II M - 30 5901:25:0802:30:07.3002:30:27.80+01:05:497:088.4
131KOSZAREK Maciej 2345POZNAŃWeteran I M - 50 501:28:5002:30:02.2002:30:36.15+01:05:577:088.4
132JĘDRYCA Przemysław 2412SPARTA ULTRA TEAMSenior II M - 30 6001:22:1102:30:23.8502:30:58.60+01:06:207:098.4
133JAŃSKI Tomasz 2194NAMYSŁÓWMasters M - 40 2701:27:1502:30:30.0502:30:59.05+01:06:207:108.4
134KOSTROWICKI Jakub 2121SIERADZBIEGA.PLPIŁASenior II M - 30 6101:25:4002:31:09.4502:31:15.80+01:06:377:118.3
135GĄSIOROWSKI Andrzej 2329RÓŻOWE GŻEGŻÓŁKI ŚMIERCIŁÓDŹSenior I M - 20 1601:27:3602:31:09.5002:31:18.60+01:06:407:118.3
136BURANT Agnieszka 2065POZNAŃSenior II K - 301301:27:3702:31:21.7502:31:28.35+01:06:497:128.3
137TROJANOWSKI Jakub 2273KIEŁCZÓWSenior II M - 30 6201:26:1002:31:11.2002:31:29.25+01:06:507:118.3
138PYTEL Mateusz 2070NETBOX BIEGAGOSTYŃSenior II M - 30 6301:28:5702:30:51.8002:31:36.10+01:06:577:118.4
139GINTER Grzegorz 2390AZS COLLEGIUM MEDICUM UJSenior II M - 30 6401:31:3602:31:28.8002:31:40.10+01:07:017:128.3
140CHĘCIŃSKI Łukasz 2063ALEKSANDRIA IISenior II M - 30 6501:24:4302:31:28.0502:31:50.05+01:07:117:128.3
141WONKO Ewa 2400ŁÓDŹSenior II K - 301401:28:3102:31:40.4002:32:00.80+01:07:227:138.3
142JANUSZEK Leon 2413Weteran I M - 50 601:27:1502:31:19.7002:32:07.90+01:07:297:128.3
143BARZYK Mateusz 2323FUDU&CO. SPORT TEAMPIOTRKOW TRYBUNALSKIMasters M - 40 2801:23:5502:31:56.6002:32:10.60+01:07:327:148.3
144CHWIAŁKOWSKI Wiesław 2042TORUŃWeteran I M - 50 701:26:3602:32:21.3502:32:37.55+01:07:597:158.3
145POMASKI Paweł 2300POMASCY BIEGAJĄWARSZAWAMasters M - 40 2901:28:5402:32:36.0502:32:39.95+01:08:017:168.3
146WOJCIECHOWSKI Mateusz 2117KALISZSenior II M - 30 6601:25:2302:32:12.5002:32:46.90+01:08:087:148.3
147MICHAŁOWICZ Marek 2392Senior II M - 30 6701:26:1502:32:35.6502:32:48.45+01:08:107:168.3
148SUSMARSKA Ewa 2384NO WOMAN NO TRISenior I K - 20801:27:0002:32:53.1502:33:24.95+01:08:467:168.2
149SKACZKOWSKA Barbara 2298POLSKI KLUB MTBWARSZAWASenior II K - 301501:28:0702:33:17.5002:33:25.00+01:08:467:188.2
150GAŁKA Stanisław 2283FLUNKYBALL TEAM LĄDEK ZDRÓJLĄDEK ZDRÓJSenior II M - 30 6801:25:1002:33:18.4002:33:31.55+01:08:537:188.2
151DRAMIŃSKI Adam 2383WARSZAWAMasters M - 40 3001:22:5902:33:13.1002:33:31.60+01:08:537:178.2
152SZMAJDA Dominik 2297NIE MAM POMYSŁUŁÓDŹSenior II M - 30 6901:25:3602:33:43.4502:33:49.10+01:09:107:198.2
153TALAREK Robert 2182SZCZECINMasters M - 40 3101:29:2402:33:12.8002:33:57.10+01:09:187:178.2
154PASTUSZKA Mirosław 2403Weteran I M - 50 801:29:4102:33:49.6002:34:14.65+01:09:367:198.2
155NOWAK Barbara 2193MARCINSWIERCTEAMLISOWICESenior II K - 301601:27:0502:33:48.3002:34:15.35+01:09:367:198.2
156CZEKALSKA Maria 2064POZNAŃSenior II K - 301701:27:3702:34:16.3002:34:23.20+01:09:447:208.2
157KARDAS Piotr 2077TKK STARA PAKATARNOWO PODGÓRNEMasters M - 40 3201:24:5502:34:12.7502:34:24.95+01:09:467:208.2
158MAZUR Rafał 2204LEGNICASenior I M - 20 1701:21:5902:34:32.1502:34:36.80+01:09:587:218.2
159SADOWSKI Piotr 2016OSTRÓDA RESCUE TEAMOSTRÓDASenior II M - 30 7002:35:11.3002:35:32.30+01:10:537:238.1
160LĄCZAK Justyna 2029SZCZECINSenior II K - 301801:30:1402:35:35.2002:35:48.20+01:11:097:248.1
161TYRPA Jaroslaw 2335BIEGIEM PO PIWOCHOCZNIAMasters M - 40 3301:29:1602:35:42.0502:36:03.15+01:11:247:248.1
162MAZIEC Roman 2340CHOJNÓWSenior II M - 30 7101:28:5802:36:06.4002:36:10.05+01:11:317:268.1
163OLESZAK Jacek 2279POLLINEŚRODA WIELKOPOLSKASenior II M - 30 7201:27:3902:36:19.7002:36:38.70+01:12:007:268.1
164SIP Mirosław 2125ŚLESINWeteran I M - 50 901:27:3902:36:20.9502:36:39.85+01:12:017:268.1
165LUDWINIAK Arkadiusz 2249ZAGOŚCINIECMasters M - 40 3401:26:3702:36:52.2502:37:21.15+01:12:427:288
166GRYCMAN Magdalena 2362SPARTA ULTRA TEAMTRZCINICASenior II K - 301901:29:1902:37:10.8002:37:25.80+01:12:477:298
167HADZICKA Sylwia 2376WROCLAWSenior II K - 302001:28:0402:36:40.0502:37:25.85+01:12:477:278
168RUSIECKI Łukasz 2333RÓŻOWE GŻEGŻÓŁKI ŚMIERCIKALISZSenior I M - 20 1801:29:1902:37:41.8502:37:51.40+01:13:137:308
169KULAK Michal 2230MILTON KEYNESSenior II M - 30 7301:28:0202:37:30.4502:37:52.45+01:13:147:308
170SKORUPSKI Szymon 2353KURACJUSZESTRZELINSenior II M - 30 7401:29:1202:38:14.4002:38:22.30+01:13:437:328
171KOSZAREK Andrzej 2237ZABIEGANE ŚREPOLEPOZNAŃMasters M - 40 3501:29:4802:38:00.4502:38:33.10+01:13:547:318
172KWIATKOWSKA Zuzanna 2317SZCZYTNAMasters K - 40801:31:2902:38:34.6002:38:51.50+01:14:137:337.9
173CZERWIŃSKI Wojciech 2254CIECHANÓWSenior I M - 20 1901:32:2202:38:18.6502:38:54.15+01:14:157:328
174SYNOWIEC Dorota 2211MOLSenior II K - 302101:31:0402:38:42.1502:39:05.70+01:14:277:337.9
175SAJEWICZ Piotr 2257TURBINA BALAKOWOWROCLAWSenior II M - 30 7501:30:1902:39:12.1002:39:31.55+01:14:537:347.9
176BORUTA-KOŁODZIEJ Emilia 2314PRO RUN WROCŁAWWROCŁAWSenior II K - 302201:31:1402:39:24.8502:39:48.70+01:15:107:357.9
177STACHLIK Dawid 2410Senior II M - 30 7601:31:2302:39:49.2502:40:02.05+01:15:237:367.9
178CZARNECKA Kamila 2006ROKIETNICASenior II K - 302301:35:1402:40:05.7002:40:22.70+01:15:447:377.9
179MROWCA Joanna 2057KRZESZÓWSenior I K - 20901:29:1502:40:07.4002:40:28.70+01:15:507:377.9
180MICHALSKA Edyta 2214ZABIEGANE ŚREPOLEŚREMSenior II K - 302401:28:5002:39:58.7002:40:32.00+01:15:537:377.9
181BARTKIEWICZ Ireneusz 2250ZAGOŚCINIECSenior II M - 30 7701:28:5702:40:12.9002:40:40.95+01:16:027:377.9
182MATAK Paweł 2186RADZYMINSenior II M - 30 7801:29:2002:40:14.3502:40:41.10+01:16:027:377.9
183ROSŁON Cezary 2187RADZYMINSenior II M - 30 7902:40:11.6502:40:41.25+01:16:027:377.9
184SIELUTIN Wadim 2203KB LEW LEGNICALEGNICAWeteran II M - 60101:30:5602:40:15.0002:41:01.85+01:16:237:377.9
185BURDAJEWICZ Magdalena 2369MOSINASenior II K - 302501:34:3102:40:27.5002:41:05.10+01:16:267:387.9
186GRUSZCZYŃSKA Sandra 2325WILD FOR THE RUN / HERCOG RUNNING TEAMWARSZAWASenior II K - 302601:33:1702:40:52.6502:41:13.15+01:16:347:397.8
187LUBAŃSKA Alicja 2129BUKOWICEMasters K - 40901:30:4802:41:11.5002:41:16.95+01:16:387:407.8
188BĄKOWSKI Piotr 2330ZAPARKOWANI/ OŚLA ŁAWKAGNIEZNOSenior II M - 30 8001:32:1102:40:50.3502:41:18.50+01:16:407:397.8
189BIEDROŃ Marcin 2139WROCŁAWSenior I M - 20 2002:41:06.2502:41:31.70+01:16:537:407.8
190LIPOWCZYK Eugeniusz 2126KB KĄTY WROCŁAWSKIEKĄTY WROCŁAWSKIEWeteran II M - 60201:31:3302:40:57.2502:41:37.90+01:16:597:397.8
191PIEKIELNA Angelika 2388WIERUNSZÓWSenior I K - 201001:31:3202:41:51.2002:42:00.55+01:17:227:427.8
192PLEWA Katarzyna 2082DOBSOMSTRONIE ŚLASKIESenior II K - 302701:29:4402:42:01.2502:42:13.35+01:17:347:427.8
193KUŁACZKOWSKA Magdalena 2221KŁODZKOSenior I K - 201101:34:4502:41:42.5502:42:15.35+01:17:367:427.8
194WYBRAWIEC Tomasz 2409Senior II M - 30 8101:29:2102:42:06.0002:42:19.20+01:17:407:437.8
195WESOLOWSKA Marta 2111KLODZKOSenior II K - 302801:34:4502:41:46.6002:42:19.20+01:17:407:427.8
196PIWOWARCZYK Andrzej 2075KRAKÓWMasters M - 40 3601:33:1002:42:08.3002:42:43.05+01:18:047:437.8
197BULIŃSKA Iwona 2405NIGHT RUNNERSSenior II K - 302901:32:4902:42:37.9002:42:46.10+01:18:077:447.7
198WARYCH Andrzej 2120STARGARDWeteran I M - 50 1001:30:2502:43:05.9502:43:26.95+01:18:487:457.7
199ASPERSKA Julia 2281POZNAŃSenior II K - 303001:34:0202:43:02.7502:43:36.25+01:18:577:457.7
200SKWIERCZYŃSKI Sylwester 2227ZĄBKISenior I M - 20 2101:35:0602:43:15.7502:43:40.10+01:19:017:467.7
201WESOLOWSKA-KRUPA Paulina 2109KLODZKOSenior II K - 303101:27:1502:43:24.8002:43:57.15+01:19:187:467.7
202MICHALSKI Grzegorz 2277SEZONSTARTOWY.PLWROCŁAWSenior II M - 30 8201:34:1202:43:42.8002:44:02.10+01:19:237:477.7
203DĄBROWSKI Roman 2289CHOJNICZKISenior II M - 30 8301:28:4802:43:49.8002:44:04.10+01:19:257:487.7
204KORDALEWSKI Łukasz 2140NC+ALEKSANDRÓWKASenior II M - 30 8401:34:4602:43:20.5002:44:09.90+01:19:317:467.7
205MISIAK Dorota 2285-STRONIE ŚLĄSKIESenior II K - 303201:33:0102:43:44.1502:44:15.65+01:19:377:477.7
206DRYGAS Mariola 2331POZNAŃSenior II K - 303301:31:5502:44:44.3502:44:58.60+01:20:207:507.6
207CZESKI Wojciech 2013MOSINA BIEGAMOSINASenior II M - 30 8501:34:4702:44:39.4002:45:07.30+01:20:287:507.7
208ZYGMUNT Małgorzata 2153ZYGI&PRZEMOWROCŁAWSenior II K - 303401:31:4002:45:02.4502:45:32.45+01:20:547:517.6
209RABSZTYN Andrzej 2356TRIATHLON MIETKÓW TEAMWROCŁAWSenior II M - 30 8601:31:5902:45:20.9002:45:32.70+01:20:547:527.6
210FILIPOWICZ Aleksandra 2316WARSZAWAMasters K - 401001:36:4302:45:09.2502:45:34.20+01:20:557:517.6
211KUCZERA Tadeusz 2241ŚWIERKLANYWeteran I M - 50 1101:34:3002:46:07.4002:46:10.30+01:21:317:547.6
212PRZETAKIEWICZ Maciej 2334MARCINŚWIERCTEAMWARSZAWASenior II M - 30 8701:32:4302:46:17.0502:46:43.60+01:22:057:557.6
213GARCZEWSKA-PASZKO Joanna 2069WARSZAWAMasters K - 401101:34:5402:46:52.7502:47:10.65+01:22:327:567.6
214DRESZER Bartosz 2103PRZEWORNOSenior II M - 30 8801:25:2502:47:06.8002:47:31.30+01:22:527:577.5
215SYNORADZKA Agata 2180VENLOSenior I K - 201202:47:52.0002:47:57.00+01:23:187:597.5
216KRZECZKOWSKI Roman 2015ŚWIDNICAMasters M - 40 3701:33:5602:48:03.1002:48:28.80+01:23:508:007.5
217GRZELKA Agata 2162POZNAŃSenior II K - 303501:39:1902:48:14.8502:48:30.70+01:23:528:007.5
218ZIELIŃSKI Michał 2406Masters M - 40 3801:39:1502:48:14.5002:48:54.20+01:24:158:007.5
219ZUBIK Anna 2301JB WARSZAWAWARSZAWASenior II K - 303601:36:2402:48:19.6002:48:56.60+01:24:188:007.5
220MORAWSKI Ryszard 2090WROCŁAWSenior II M - 30 8901:31:4002:48:50.7502:49:00.10+01:24:218:027.5
221URBAN Mieczysław 2161ROZBIEGANY RAWICZRAWICZWeteran II M - 60301:35:1302:48:45.8502:49:00.70+01:24:228:027.5
222HĄCIA Sylwia 2235KĘPNOSenior I K - 201301:33:3802:48:46.4502:49:01.90+01:24:238:027.5
223BARAŃSKA Małgorzata 2086BBL OPOLEOPOLEMasters K - 401201:38:0502:49:13.6002:49:41.00+01:25:028:037.4
224RATAJCZAK Tomasz 2364TERAZ ALBO NIGDYPOZNAŃSenior II M - 30 9001:43:5702:48:48.0002:49:42.90+01:25:048:027.5
225PIETRASZEWSKI Tomasz 2005TSG MŁÓCKARNIAŁÓDŹSenior II M - 30 9101:34:2002:49:15.6502:49:46.75+01:25:088:037.4
226GAPSKA Anna 2262GDAŃSKSenior I K - 201401:40:1502:49:33.5002:49:59.55+01:25:218:047.4
227BEDNARCZYK Bogusław 2048PRO-RUN WROCŁAWWROCŁAWWeteran I M - 50 1201:28:5602:49:51.9502:50:24.20+01:25:458:057.4
228PISKORZ Robert 2355POLKOWICEMasters M - 40 3901:44:5002:49:44.1502:50:31.45+01:25:538:047.4
229KLINKE Arkadiusz 2171GRZMIĄCE KIJEKATOWICEMasters M - 40 4001:36:0102:49:53.2002:50:35.40+01:25:578:057.4
230NORWA Sylwester 23523N PATKÓWPATKÓWMasters M - 40 4101:37:5202:50:05.2502:51:00.60+01:26:228:057.4
231PASŁAWSKA Olga 2266PRZEBIEGA.PLWROCŁAWSenior II K - 303701:38:1602:50:45.6502:51:02.75+01:26:248:077.4
232ZAGASKA Linda 2258WATAHA TEAMGLIWICESenior I K - 201501:36:4302:50:48.3002:51:09.60+01:26:318:087.4
233KOSTERA Katarzyna 2026VEGE RUNNERSWARSZAWASenior II K - 303801:39:4902:50:48.2502:51:15.40+01:26:378:087.4
234SZCZERBA Kasia 2062FANS OF FARAWAYWARSZAWASenior II K - 303901:41:2002:50:34.7002:51:25.75+01:26:478:077.4
235GÓRSKI Piotr 2095HARDCOROWE WYCHYLYLYBYMYOTWOCKMasters M - 40 4201:39:3802:51:31.0502:51:36.25+01:26:578:107.3
236PACAN Jacek 2360GDYNIAMasters M - 40 4301:39:0602:50:56.3502:51:37.50+01:26:598:087.4
237JÓZEFOWSKI Karol 2137NOWY TOMYŚLSenior I M - 20 2201:40:4002:51:42.2002:52:21.90+01:27:438:107.3
238KOZIEŁ Marta 2136NOWY TOMYŚLSenior I K - 201601:40:3902:51:41.9502:52:22.05+01:27:438:107.3
239KOWALSKI Mariusz 2147WROCŁAWSenior II M - 30 9201:35:5402:51:52.5002:52:35.00+01:27:568:117.3
240BANASIK Karolina 2253WKURW_TEAMKIELCESenior II K - 304001:35:3702:52:09.5002:52:37.40+01:27:598:117.3
241KRAWCZYK Jakub 2219GO SPORTKIELCESenior I M - 20 2301:39:4502:52:07.8502:52:48.40+01:28:108:117.3
242ŚWIDEREK Kasia 2368JÓZEFOSŁAWMasters K - 401301:37:4802:52:43.9502:52:50.85+01:28:128:137.3
243OSICA Łukasz 2328ŚWIĘTOCHŁOWICESenior II M - 30 9301:35:1302:52:00.6002:52:50.90+01:28:128:117.3
244DRABIK Jacek 2373KRAKOWWeteran I M - 50 1301:39:5402:52:30.6002:52:58.80+01:28:208:127.3
245POCIĘGIEL Michał 2083RADZISZÓWSenior II M - 30 9401:37:3802:52:55.3502:53:06.70+01:28:288:147.3
246LASKOWSKA Maja 2130OBOZYBIEGOWE.PLŻYRARDÓWSenior II K - 304101:43:0502:53:12.9002:53:47.65+01:29:098:147.3
247MOKRZYCKA Weronika 2379STARA ŁOMNICASenior II K - 304201:40:2602:53:34.5502:53:49.60+01:29:118:157.3
248FRANKOWSKI Piotr 2146WARSZAWAMasters M - 40 4401:40:4202:53:08.9002:53:51.00+01:29:128:147.3
249CZERWONKA Katarzyna 2122AZS COLLEGIUM MEDICUM UJKRAKÓWSenior II K - 304301:40:3702:53:34.6502:53:56.55+01:29:188:157.3
250NOWICKI Andrzej 2209POMIOTY SZATANAPOZNAŃSenior I M - 20 2401:42:0802:53:51.2002:54:00.75+01:29:228:167.2
251PAWLIK Tomasz 2282JB WARSAWWARSZAWASenior II M - 30 9501:41:3402:53:33.0502:54:10.05+01:29:318:157.3
252KOSTERA Tomasz 2025VEGE RUNNERSWARSZAWAMasters M - 40 4501:33:2202:54:22.7002:54:50.60+01:30:128:187.2
253KOCZAJA Malgorzata 2248KRAKÓWSenior I K - 201701:37:3802:55:15.1502:55:36.15+01:30:578:207.2
254RAPACZ - TOPIŁKO Anna 2401ODLO POLSKASenior II K - 304401:39:5802:55:28.6002:55:38.90+01:31:008:217.2
255ZAKRZEWSKI Grzegorz 2349POWER TRAININGWARSZAWAWeteran II M - 60401:42:1602:55:51.6002:56:26.40+01:31:488:227.2
256PORADA Magdalena 2184KRZEPTÓWSenior II K - 304501:40:2502:55:57.7002:56:26.60+01:31:488:227.2
257STASZEWSKI Dariusz 2022TOMASZÓW MAZOWIECISenior II M - 30 9601:36:5202:56:12.9002:56:56.25+01:32:178:237.2
258DUDZIAK Bartłomiej 2247GREATGRATULA OSIECZNAOSIECZNAMasters M - 40 4601:39:2902:56:30.3502:57:01.15+01:32:228:247.1
259SEREDA Andrii 2178KRAKOWSenior I M - 20 2501:45:5202:56:16.2502:57:01.15+01:32:228:237.1
260BAŃKA Grzegorz 2092WARSZAWASenior II M - 30 9701:36:5602:56:33.0502:57:07.25+01:32:288:247.1
261MOŃKA Karolina 2326SPARTA ULTRA TEAMWIERUSZÓWSenior I K - 201801:39:4502:57:10.3002:57:25.90+01:32:478:267.1
262KOJDER Iwona 2079KRĘCZKISenior I K - 201901:41:4102:57:38.1502:57:49.30+01:33:108:277.1
263PISKORZ Daria 2354DRUŻYNA SZPIKU SITECHPOLKOWICEMasters K - 401401:44:5002:57:01.9002:57:49.30+01:33:108:257.1
264GRISZCZENKO Ela 2229SZCZECINSenior I K - 202001:40:1302:57:21.0002:58:02.35+01:33:238:267.1
265MILEJSKA Joanna 2087BBL OPOLEOPOLEMasters K - 401501:44:0002:57:23.1502:58:08.60+01:33:308:267.1
266KOSZYK Rafał 2088OPOLESenior II M - 30 9801:44:0002:57:24.5002:58:09.50+01:33:318:267.1
267RUTKOWSKA Hanna 2185-RUDA ŚLĄSKASenior I K - 202101:40:4302:58:04.5502:58:24.60+01:33:468:287.1
268WRONA Agnieszka 2236ZĄBKOWICE ŚLĄSKIESenior II K - 304601:40:0602:58:07.5502:58:43.05+01:34:048:287.1
269NIEDZIELA Kamil 2020W POGONI ZA DUCHEMSOSNOWIECSenior I M - 20 2601:35:3502:59:15.1502:59:46.35+01:35:078:327
270ŻARSKA Izabela 2307FUDU&CO SPORT TEAMPIOTRKÓW TRYB.Masters K - 401601:44:3303:01:03.9003:01:17.50+01:36:398:377
271SOSZYŃSKA Gosia 2052CZŁAPACZEWARSZAWAWeteran K - 50101:44:2803:01:10.8503:01:48.70+01:37:108:377
272WOŁOS Marcin 2071BOCHNIASenior II M - 30 9901:40:3203:01:33.4503:02:09.60+01:37:318:386.9
273LUBOCH Agnieszka 2108SZYDŁÓWMasters K - 401701:43:2303:02:02.0003:02:13.85+01:37:358:406.9
274BALICKI Jakub 2350ASAP RUNNERSŁÓDŹMasters M - 40 4701:46:5203:01:24.7503:02:15.40+01:37:378:386.9
275PATYRA Łukasz 2119WROCŁAWSenior II M - 30 10001:42:5803:02:09.0003:02:30.35+01:37:518:406.9
276STĘPIEŃ Wojciech 2091NIGHT RUNNERS GLIWICEGLIWICEMasters M - 40 4801:44:3303:02:34.5003:02:57.45+01:38:198:416.9
277GARBOWSKA Monika 2089NIGHT RUNNERS GLIWICEGLIWICESenior II K - 304701:44:3203:02:34.5503:02:57.55+01:38:198:416.9
278HETKA Magdalena 23021991WOLSZTYNSenior I K - 202201:43:4503:02:19.8003:03:00.05+01:38:218:406.9
279TRZPIOŁA Tycjan 2318KURACJUSZELEGNICASenior II M - 30 10101:40:1003:02:37.5503:03:00.15+01:38:218:416.9
280TERZONI Karina 2339WARSZAWASenior II K - 304801:43:1503:03:03.9003:03:37.70+01:38:598:436.9
281PIELICHOWSKA Justyna 2164BIEGAJĄC Z WILKAMIGOZDNICASenior II K - 304901:41:0303:03:20.0503:03:37.95+01:38:598:436.9
282SZYMAŁA Marek 2404KLUCZBORSKA GRUPA BIEGOWAMasters M - 40 4901:45:1503:03:15.0003:03:47.60+01:39:098:436.9
283KRZACZKOWSKA Joanna 2233WARSZAWASenior II K - 305001:46:1203:03:03.7003:03:52.80+01:39:148:436.9
284MARZYCKI Wojciech 2234WARSZAWASenior II M - 30 10201:46:1703:03:03.2503:03:53.10+01:39:148:436.9
285SOBAŃSKA Paulina 2040WUEF CLUB DECATHLON SWADZIMTARNOWO PODGÓRNESenior II K - 305101:43:1803:04:13.7003:04:30.20+01:39:518:466.8
286TOMCZYK Marek 2372WARSZAWASenior II M - 30 10301:40:1703:03:46.8003:04:40.90+01:40:028:456.9
287KRZYWICKI Tomasz 2371VEGE RUNNERSPOZNANMasters M - 40 5001:42:5503:04:37.0503:05:15.20+01:40:368:476.8
288RYNKOWSKA Katarzyna 2177WARSZAWAMasters K - 401801:45:1903:05:33.2503:05:57.65+01:41:198:506.8
289WOŹNIAK Paulina 2265CKBABCIEKIELCESenior II K - 305201:44:0603:05:39.4503:06:03.15+01:41:248:506.8
290GRĘZEL-GAWRON Jolanta 2084POLSKA NOWA WIEŚMasters K - 401901:44:1603:05:49.9503:06:03.15+01:41:248:506.8
291PRZYSIWEK Magdalena 2196POZNAŃSenior II K - 305301:45:2703:05:46.8003:06:17.40+01:41:398:506.8
292MĄCZKA Krystyna 2395OTK RZEŹNIKWeteran II K - 60101:45:0503:06:26.7003:06:34.20+01:41:558:526.8
293OLSZEWSKA Anna 2287SULEJÓWSenior II K - 305401:46:0803:05:40.4003:06:35.05+01:41:568:506.8
294DZIAŁAK Marian 2124KB AKTYWNI KONINKONINWeteran II M - 60501:42:0703:06:46.3503:07:05.60+01:42:278:536.7
295MRÓZ Izabela 2094WOLNE ŚLIMAKIPOZNAŃSenior II K - 305501:52:5903:06:49.6003:07:28.90+01:42:508:536.7
296ZARĘBA Julia 2291NIE ZA DALEKOLUSÓWKOSenior I K - 202301:49:3803:07:16.6503:07:35.15+01:42:568:556.7
297BAŁYS Dariusz 2207WK GOPRSTRONIE ŚLĄSKIEMasters M - 40 5101:49:1603:08:17.3503:08:28.35+01:43:498:576.7
298ŚLEMP Bernadetta 2375JASIONKAMasters K - 402001:51:5803:07:55.1503:08:44.55+01:44:068:566.7
299MUSIELAK Magdalena 2231M&M&MPOZNAŃSenior II K - 305601:41:4003:09:04.7503:09:10.40+01:44:329:006.7
300GÓRSKA-NOWAK Tatiana 2255AGB TORFYŁÓDŹMasters K - 402101:47:3003:08:50.4003:09:18.00+01:44:398:596.7
301ŚLIWAK Katarzyna 2359WROCŁAWSenior I K - 202401:53:2603:09:13.5003:09:28.40+01:44:509:006.7
302KULIBERDA Sylwia 2308RZESZÓWMasters K - 402201:53:0203:08:58.3003:09:43.00+01:45:048:596.7
303NOWACZYK Zuzanna 2293POZNAŃSenior I K - 202501:46:4103:09:09.2003:09:52.20+01:45:139:006.7
304PIETROWICZ Weronika 2336ZABIEGANI LUSÓWKOLUSOWKOSenior I K - 202601:46:4203:09:09.4003:09:52.40+01:45:149:006.7
305KUCZERA Hanna 2239ŚWIERKLANYSenior II K - 305701:52:1803:09:52.8503:10:23.50+01:45:459:026.6
306PRIGAN Anna 2154WROCŁAWSenior II K - 305801:53:2503:10:53.8503:11:08.55+01:46:309:056.6
307WITKOWSKA Maria 2009KLUB KRÓLIKA STEFANAKATOWICEWeteran II K - 60201:49:4603:10:16.3503:11:10.05+01:46:319:036.6
308BAJAK Mirosław 2004KRAKÓWMasters M - 40 5201:51:4903:10:48.3003:11:24.55+01:46:469:056.6
309WIĘCZKOWSKI Wojciech 2380HUSARIA RACE TEAMWARSZAWAMasters M - 40 5301:45:0503:11:42.9003:12:22.30+01:47:439:076.6
310GARGAS-DZIEDZINA Joanna 2276NIGHT RUNNERSKRAKÓWSenior II K - 305901:51:5003:12:14.8003:12:22.90+01:47:449:096.6
311ŻEBRAK Anna 2033KŁODZKOSenior I K - 202701:46:3403:11:44.5003:12:32.45+01:47:549:076.6
312LAZAR Joanna 2155MIROTRANSWROCŁAWSenior II K - 306001:51:4703:11:44.7503:12:34.15+01:47:559:076.6
313KĘSY Krystian 2003MRS96SIERAKÓWSenior I M - 20 2701:49:2503:13:46.5503:14:15.30+01:49:369:136.5
314DUDARONEK Paulina 2217SZCZECINSenior I K - 202801:43:3703:15:14.6503:15:22.60+01:50:449:176.5
315PRĘDKA Magdalena 2045OLA CLUBWARSZAWAMasters K - 402301:50:2303:14:33.8503:15:25.15+01:50:469:156.5
316PUSTELNIK Piotr 2310AKG ŁÓDŹŁÓDŹWeteran II M - 60601:52:2503:15:45.8503:16:04.35+01:51:259:196.4
317DEMBNY Bogdan 2288SYCÓWSenior II M - 30 10401:46:4903:15:34.0503:16:25.00+01:51:469:186.4
318SALONI-SADOWSKA Maria 2274OBOZYBIEGOWE.PLWARSZAWAMasters K - 402401:51:1603:16:26.4003:16:50.60+01:52:129:216.4
319FLORCZAK Monika 2407KOBIETA W BIEGUSenior I K - 202901:51:5403:16:04.5503:16:50.80+01:52:129:206.4
320KAŁWA Anna 2099WROCŁAWSenior II K - 306101:48:3003:16:43.3003:17:29.80+01:52:519:226.4
321JAŹNIECKI Marcin 2391MUAY RUNNING TEAMSenior II M - 30 10501:47:2703:17:11.5003:17:48.70+01:53:109:236.4
322LESZCZYŃSKA Lidia 2002POKERUNPOZNAŃMasters K - 402501:52:2403:17:35.7503:17:52.85+01:53:149:246.4
323BARTOSIEWICZ Dorota 2202POZNAŃSenior II K - 306201:48:1303:17:48.8503:17:57.60+01:53:199:256.4
324MADAJ Jagoda 2115WROCŁAWSenior I K - 203001:58:0503:17:33.2003:18:13.45+01:53:359:246.4
325PRZYBYŁ Jolanta 2028BIEGOLOGIA.PL / EASY RUNNERSGOSTYŃMasters K - 402601:52:0903:18:36.8003:18:52.95+01:54:149:276.3
326SZULC Joanna 2031ALBATROSYWARSZAWAMasters K - 402701:59:4203:20:06.7003:20:33.15+01:55:549:316.3
327KUKUŁA Maciej 2096KRAKÓWSenior I M - 20 2801:49:0103:19:59.8003:20:43.70+01:56:059:316.3
328KUKUŁA Patrycja 2097KRAKÓWSenior I K - 203101:49:0003:20:00.2503:20:44.15+01:56:059:316.3
329KURDZIEL Tomasz 2144LĄDEK ZDRÓJMasters M - 40 5401:52:3803:20:15.3503:20:55.90+01:56:179:326.3
330WALCZAK-WOJTKOWSKA Iwona 2173WARSZAWAWeteran K - 50201:57:5503:23:22.4003:23:59.40+01:59:219:416.2
331PODSIADŁY Robert 2023CHATA BIEGACZA K34WROCŁAWWeteran I M - 50 1401:51:2003:23:09.4503:24:02.30+01:59:239:406.2
332ŚWIĄTEK Karolina 2198GRUTASenior I K - 203201:57:1803:25:57.6503:26:36.50+02:01:589:486.1
333ŚWIĄTEK Agnieszka 2199GRUTASenior I K - 203301:57:1903:25:58.3003:26:36.70+02:01:589:486.1
334KOTYSZ Katarzyna 2197BBL OPOLEOPOLEWeteran K - 50301:59:2903:28:16.6503:29:02.75+02:04:249:556
335RYNKOWSKA Magdalena 2176WARSZAWAMasters K - 402802:01:1803:29:33.1503:29:57.00+02:05:189:586
336KRAWCZAK Karolina 2263BIEGAM BO LUBIĘ GŁOGÓWGŁOGÓWSenior I K - 203401:52:2403:29:43.9503:30:09.10+02:05:309:596
337KACZMAREK Agata 2034TKD SZAKAL JEŻYCE RUNNERSPOZNAŃMasters K - 402902:07:2703:29:55.2503:30:22.05+02:05:439:596
338MUSZYŃSKI Wojciech 2205KOLBUSZOWAMasters M - 40 5501:57:5803:29:54.3503:30:44.25+02:06:059:596
339KACZYŃSKI Michał 2228MEGAVISIONWARSZAWAMasters M - 40 5601:56:5403:31:00.9003:31:44.50+02:07:0610:026
340MICHALSKA Małgorzata 2066FUDU&CO. SPORT TEAMPIOTRKÓW TRYBMasters K - 403001:59:5803:31:54.0003:32:08.30+02:07:2910:055.9
341ZAGROBELNA Magdalena 2116DRUŻYNA SZPIKUWROCŁAWSenior II K - 306302:12:4103:35:50.7503:36:21.20+02:11:4210:165.8
342KUCZAKOWSKA Joanna 2399BIEGOWE MISIESenior II K - 306401:58:3303:36:24.5503:36:39.75+02:12:0110:185.8
343KRUZEL Rafał 2398BIEGOWE MISIEMasters M - 40 5701:58:2803:36:24.3003:36:40.10+02:12:0110:185.8
344HRYŃKA Tomek 2397Masters M - 40 5801:58:3503:36:46.9503:37:02.85+02:12:2410:195.8
345ZAJDLIC Renata 2172KONINMasters K - 403102:10:5603:37:10.3503:37:30.40+02:12:5210:205.8
346STRZELECKI Artur 2408Weteran I M - 50 1502:07:2503:37:06.3003:37:32.05+02:12:5310:205.8
347CHROMIŃSKI Maciej 2032BRAKGORZÓW WLKP.Senior II M - 30 10601:56:5703:37:05.2003:37:40.60+02:13:0210:205.8
348REJMISZ Rafał 2348UNIMAT RUNNERSGARBYWeteran I M - 50 1602:01:1903:38:22.8503:38:39.30+02:14:0010:235.8
349KACZMARKIEWICZ Krzysztof 2278ITAKA STUDIO FILMOEŁÓDŹWeteran I M - 50 1701:57:0303:38:41.9003:38:48.80+02:14:1010:245.8
350CHOJNOWSKA Monika 2131BIEGAM BO LUBIĘ ZĄBKITEAMZĄBKISenior II K - 306502:02:3503:38:36.4503:39:11.50+02:14:3310:245.8
351KUKLIŃSKA Joanna 2294LUBINWeteran K - 50402:06:4203:40:52.8503:41:31.45+02:16:5310:315.7
352ROSZAK Romana 2100KURACJUSZEWROCŁAWSenior II K - 306602:05:3403:42:43.3003:42:50.00+02:18:1110:365.7
353SOSULSKA Janina 2238ATHLETICS NYSAWŁODARYWeteran K - 50502:12:2703:44:04.0003:44:50.25+02:20:1110:405.6
354POMIANOWSKA Anna 2107WRONKISenior II K - 306701:58:4503:44:05.0003:44:50.30+02:20:1110:405.6
355SPOZ Magdalena 2039TKD SZAKAL JEŻYCE RUNNERSPOZNAŃMasters K - 403202:07:2703:49:06.2503:49:32.40+02:24:5410:545.5
356KUTNA Agnieszka 2101KŁODZKOSenior II K - 306802:12:4103:59:15.4003:59:44.65+02:35:0611:235.3
357JUSZKO Monika 2225WARSZAWAMasters K - 403302:09:5104:04:48.8004:05:20.55+02:40:4211:395.1
358JUSZKO Aleksandra 2226WARSZAWASenior I K - 203502:09:5204:05:06.7504:05:38.30+02:40:5911:405.1
359GORGOL Renia 2342BYDGOSZCZMasters K - 403402:20:0004:24:55.3004:25:37.85+03:00:5912:364.8
360ANDRYSZAK Karolina 2341#TEAMFARFALLABYDGOSZCZMasters K - 403502:20:0404:24:55.7504:25:38.50+03:01:0012:364.8
361NOWICKI Amdrzej 2256ZJEDNOCZENI ZWYCIĘŻAMYWROCŁAWMasters M - 40 5902:20:1104:31:02.0004:31:40.90+03:07:0212:544.6
TOWAROWSKI Andrzej 2264WARSZAWAMasters M - 40 01:46:25 DNF DNF DNF--
CORREIA Andre 2272QVC RUNNERSKRAKOWSenior I M - 20 DNF DNF DNF--
SZKWAREK Adrian 2118LADEK ZDROJSenior II M - 30 DNF DNF DNF--
BANASZEK Adam 2393BIEGUSIEM.PLSenior II M - 30 DNF DNF DNF--
KIERZKOWSKI Przemysław 2142POZNAŃSenior II M - 30 DNF DNF DNF--
POLUS Magdalena 2141POZNAŃSenior II K - 30 DNF DNF DNF--
Znaleziono 367 wynik(ów)